createdAt,value
2022-12-15T00:00:57.659Z,26.77
2022-12-15T00:03:43.162Z,27.97
2022-12-15T00:06:35.666Z,30.17
2022-12-15T00:09:24.038Z,23.93
2022-12-15T00:12:18.578Z,22.27
2022-12-15T00:15:04.092Z,18.30
2022-12-15T00:17:57.567Z,18.77
2022-12-15T00:20:42.914Z,12.97
2022-12-15T00:23:37.564Z,17.00
2022-12-15T00:26:24.495Z,15.70
2022-12-15T00:29:16.602Z,15.33
2022-12-15T00:32:02.089Z,15.10
2022-12-15T00:34:54.532Z,11.80
2022-12-15T00:37:40.680Z,10.97
2022-12-15T00:40:15.590Z,12.93
2022-12-15T00:42:42.968Z,11.90
2022-12-15T00:45:24.545Z,11.30
2022-12-15T00:47:58.319Z,11.07
2022-12-15T00:50:50.556Z,11.90
2022-12-15T00:53:36.570Z,11.37
2022-12-15T00:56:28.554Z,10.87
2022-12-15T00:59:14.532Z,9.37
2022-12-15T01:02:07.583Z,10.07
2022-12-15T01:04:53.459Z,10.00
2022-12-15T01:07:49.478Z,9.77
2022-12-15T01:10:37.140Z,8.53
2022-12-15T01:13:30.772Z,14.13
2022-12-15T01:16:16.695Z,20.17
2022-12-15T01:19:08.604Z,18.67
2022-12-15T01:21:35.820Z,17.73
2022-12-15T01:24:03.010Z,18.03
2022-12-15T01:26:36.616Z,17.80
2022-12-15T01:29:03.720Z,28.83
2022-12-15T01:31:31.021Z,33.63
2022-12-15T01:34:04.628Z,33.83
2022-12-15T01:36:31.785Z,36.40
2022-12-15T01:38:58.928Z,32.87
2022-12-15T01:41:33.305Z,34.93
2022-12-15T01:44:24.669Z,34.03
2022-12-15T01:47:09.614Z,36.07
2022-12-15T01:49:36.811Z,33.53
2022-12-15T01:52:11.439Z,35.53
2022-12-15T01:54:55.550Z,36.43
2022-12-15T01:57:31.809Z,38.73
2022-12-15T02:00:10.992Z,35.67
2022-12-15T02:02:40.498Z,38.47
2022-12-15T02:05:16.552Z,34.07
2022-12-15T02:07:43.682Z,35.20
2022-12-15T02:10:11.963Z,37.90
2022-12-15T02:13:15.561Z,36.30
2022-12-15T02:15:59.536Z,38.47
2022-12-15T02:18:49.596Z,53.80
2022-12-15T02:22:01.744Z,45.30
2022-12-15T02:24:54.584Z,37.27
2022-12-15T02:27:37.395Z,38.57
2022-12-15T02:30:36.532Z,37.67
2022-12-15T02:33:27.535Z,35.67
2022-12-15T02:36:12.488Z,39.47
2022-12-15T02:38:41.702Z,35.60
2022-12-15T02:41:51.568Z,36.77
2022-12-15T02:44:26.827Z,38.73
2022-12-15T02:47:27.550Z,40.63
2022-12-15T02:50:34.668Z,38.80
2022-12-15T02:53:22.562Z,41.63
2022-12-15T02:56:31.427Z,38.33
2022-12-15T02:59:39.538Z,38.60
2022-12-15T03:02:10.567Z,41.57
2022-12-15T03:04:37.831Z,42.77
2022-12-15T03:07:16.538Z,42.60
2022-12-15T03:09:43.616Z,41.77
2022-12-15T03:12:11.034Z,38.27
2022-12-15T03:14:44.573Z,38.17
2022-12-15T03:17:11.707Z,39.00
2022-12-15T03:19:38.965Z,38.33
2022-12-15T03:22:12.501Z,36.90
2022-12-15T03:24:39.552Z,38.87
2022-12-15T03:27:06.702Z,36.97
2022-12-15T03:29:40.587Z,38.80
2022-12-15T03:32:08.717Z,37.30
2022-12-15T03:34:35.867Z,36.57
2022-12-15T03:37:09.575Z,38.23
2022-12-15T03:39:36.680Z,36.23
2022-12-15T03:42:03.839Z,40.17
2022-12-15T03:44:37.560Z,34.73
2022-12-15T03:47:11.652Z,40.70
2022-12-15T03:49:52.521Z,41.40
2022-12-15T03:52:19.587Z,37.83
2022-12-15T03:54:47.149Z,38.43
2022-12-15T03:57:20.539Z,36.17
2022-12-15T03:59:47.697Z,35.83
2022-12-15T04:02:15.103Z,40.33
2022-12-15T04:04:49.579Z,39.10
2022-12-15T04:07:16.733Z,38.73
2022-12-15T04:09:43.884Z,40.27
2022-12-15T04:12:20.563Z,41.10
2022-12-15T04:14:47.663Z,40.80
2022-12-15T04:17:16.975Z,41.83
2022-12-15T04:20:08.677Z,36.73
2022-12-15T04:22:42.040Z,40.60
2022-12-15T04:25:42.540Z,39.23
2022-12-15T04:28:30.503Z,35.10
2022-12-15T04:31:34.555Z,39.50
2022-12-15T04:34:25.022Z,37.33
2022-12-15T04:37:19.497Z,38.57
2022-12-15T04:40:10.738Z,40.17
2022-12-15T04:43:10.545Z,37.47
2022-12-15T04:46:03.486Z,34.60
2022-12-15T04:49:01.552Z,36.37
2022-12-15T04:51:47.073Z,41.70
2022-12-15T04:54:38.543Z,37.10
2022-12-15T04:57:24.288Z,39.27
2022-12-15T05:00:16.557Z,38.53
2022-12-15T05:03:02.019Z,38.63
2022-12-15T05:05:53.541Z,41.53
2022-12-15T05:08:38.973Z,36.73
2022-12-15T05:11:32.531Z,35.77
2022-12-15T05:14:18.045Z,32.70
2022-12-15T05:17:09.540Z,39.57
2022-12-15T05:19:54.999Z,33.10
2022-12-15T05:22:46.543Z,33.37
2022-12-15T05:25:32.519Z,36.13
2022-12-15T05:28:24.563Z,34.67
2022-12-15T05:31:10.231Z,35.30
2022-12-15T05:33:43.520Z,37.80
2022-12-15T05:36:10.602Z,33.70
2022-12-15T05:38:37.644Z,35.93
2022-12-15T05:41:11.532Z,35.93
2022-12-15T05:43:38.485Z,35.83
2022-12-15T05:46:19.589Z,39.97
2022-12-15T05:48:53.171Z,35.63
2022-12-15T05:51:26.521Z,36.07
2022-12-15T05:53:54.374Z,33.27
2022-12-15T05:56:21.336Z,37.10
2022-12-15T05:58:54.519Z,36.30
2022-12-15T06:01:22.415Z,37.40
2022-12-15T06:03:49.543Z,35.97
2022-12-15T06:06:23.550Z,41.07
2022-12-15T06:08:50.984Z,34.73
2022-12-15T06:11:20.162Z,37.00
2022-12-15T06:13:53.620Z,40.23
2022-12-15T06:16:23.479Z,39.47
2022-12-15T06:19:05.553Z,36.87
2022-12-15T06:21:35.559Z,41.87
2022-12-15T06:24:18.539Z,40.17
2022-12-15T06:26:46.073Z,39.97
2022-12-15T06:29:18.410Z,40.00
2022-12-15T06:31:52.606Z,41.47
2022-12-15T06:34:19.991Z,43.20
2022-12-15T06:36:47.418Z,40.43
2022-12-15T06:39:24.035Z,40.33
2022-12-15T06:41:51.303Z,44.03
2022-12-15T06:44:19.451Z,39.13
2022-12-15T06:46:53.739Z,41.37
2022-12-15T06:49:27.700Z,38.97
2022-12-15T06:52:04.254Z,42.37
2022-12-15T06:54:31.648Z,40.90
2022-12-15T06:56:59.068Z,40.33
2022-12-15T06:59:32.691Z,39.13
2022-12-15T07:02:00.892Z,37.33
2022-12-15T07:04:28.657Z,48.93
2022-12-15T07:07:03.868Z,41.63
2022-12-15T07:09:31.325Z,42.93
2022-12-15T07:11:59.963Z,38.17
2022-12-15T07:14:34.777Z,42.50
2022-12-15T07:17:02.111Z,39.57
2022-12-15T07:19:30.601Z,38.13
2022-12-15T07:22:05.619Z,39.30
2022-12-15T07:24:32.913Z,48.07
2022-12-15T07:27:00.444Z,45.57
2022-12-15T07:29:34.662Z,43.13
2022-12-15T07:32:02.215Z,44.93
2022-12-15T07:34:34.025Z,45.40
2022-12-15T07:37:08.929Z,38.77
2022-12-15T07:39:39.508Z,39.03
2022-12-15T07:42:06.851Z,37.70
2022-12-15T07:44:40.725Z,41.83
2022-12-15T07:47:21.105Z,45.80
2022-12-15T07:49:55.879Z,41.90
2022-12-15T07:52:23.694Z,45.73
2022-12-15T07:54:51.370Z,48.13
2022-12-15T07:57:25.691Z,42.33
2022-12-15T07:59:53.746Z,38.07
2022-12-15T08:02:21.506Z,40.00
2022-12-15T08:04:55.625Z,37.43
2022-12-15T08:07:23.639Z,37.77
2022-12-15T08:09:50.933Z,38.13
2022-12-15T08:12:24.609Z,41.30
2022-12-15T08:14:52.220Z,37.40
2022-12-15T08:17:20.293Z,37.10
2022-12-15T08:19:58.786Z,42.87
2022-12-15T08:22:26.707Z,36.17
2022-12-15T08:25:01.639Z,37.80
2022-12-15T08:27:29.410Z,34.23
2022-12-15T08:29:57.187Z,35.57
2022-12-15T08:32:31.686Z,34.90
2022-12-15T08:34:59.644Z,38.90
2022-12-15T08:37:28.646Z,29.27
2022-12-15T08:40:03.595Z,32.30
2022-12-15T08:42:35.908Z,29.83
2022-12-15T08:45:10.591Z,31.90
2022-12-15T08:47:47.077Z,30.53
2022-12-15T08:50:20.963Z,28.77
2022-12-15T08:53:13.840Z,27.93
2022-12-15T08:55:46.392Z,31.00
2022-12-15T08:58:14.344Z,30.57
2022-12-15T09:00:42.352Z,28.90
2022-12-15T09:03:16.205Z,26.80
2022-12-15T09:05:46.687Z,25.60
2022-12-15T09:08:16.144Z,29.37
2022-12-15T09:10:52.280Z,23.90
2022-12-15T09:13:20.631Z,24.87
2022-12-15T09:16:11.855Z,26.23
2022-12-15T09:18:41.552Z,21.27
2022-12-15T09:21:20.548Z,22.50
2022-12-15T09:23:51.884Z,23.17
2022-12-15T09:26:31.049Z,23.83
2022-12-15T09:28:58.891Z,23.53
2022-12-15T09:31:41.198Z,26.07
2022-12-15T09:34:12.980Z,23.37
2022-12-15T09:36:40.871Z,25.60
2022-12-15T09:39:19.397Z,28.43
2022-12-15T09:41:54.881Z,22.73
2022-12-15T09:44:32.780Z,26.33
2022-12-15T09:47:18.872Z,24.77
2022-12-15T09:50:03.591Z,31.37
2022-12-15T09:52:56.883Z,25.37
2022-12-15T09:55:34.573Z,22.50
2022-12-15T09:58:40.844Z,22.40
2022-12-15T10:01:40.667Z,23.83
2022-12-15T10:04:24.405Z,24.10
2022-12-15T10:07:25.573Z,25.27
2022-12-15T10:09:53.305Z,27.20
2022-12-15T10:12:53.337Z,23.27
2022-12-15T10:15:28.553Z,29.77
2022-12-15T10:18:24.698Z,27.17
2022-12-15T10:20:58.135Z,28.30
2022-12-15T10:23:35.641Z,25.33
2022-12-15T10:26:21.059Z,25.63
2022-12-15T10:29:12.597Z,34.60
2022-12-15T10:32:05.232Z,28.30
2022-12-15T10:34:46.759Z,29.50
2022-12-15T10:37:19.696Z,25.73
2022-12-15T10:39:58.730Z,28.57
2022-12-15T10:42:27.710Z,27.57
2022-12-15T10:45:06.635Z,25.37
2022-12-15T10:47:40.842Z,22.83
2022-12-15T10:50:34.705Z,25.23
2022-12-15T10:53:09.275Z,25.60
2022-12-15T10:55:50.186Z,23.53
2022-12-15T10:58:22.995Z,27.00
2022-12-15T11:01:14.760Z,26.67
2022-12-15T11:03:42.701Z,23.47
2022-12-15T11:06:28.597Z,27.60
2022-12-15T11:09:25.006Z,29.30
2022-12-15T11:12:17.629Z,27.90
2022-12-15T11:15:01.759Z,29.67
2022-12-15T11:17:48.660Z,29.23
2022-12-15T11:20:25.118Z,28.13
2022-12-15T11:23:25.656Z,29.93
2022-12-15T11:26:35.916Z,32.13
2022-12-15T11:29:41.717Z,28.60
2022-12-15T11:32:11.950Z,28.80
2022-12-15T11:34:51.688Z,29.07
2022-12-15T11:37:45.042Z,32.57
2022-12-15T11:40:50.602Z,34.27
2022-12-15T11:43:29.834Z,32.23
2022-12-15T11:46:33.703Z,33.57
2022-12-15T11:49:26.800Z,32.93
2022-12-15T11:52:09.909Z,33.27
2022-12-15T11:54:48.163Z,33.47
2022-12-15T11:57:26.693Z,41.13
2022-12-15T12:00:05.702Z,34.90
2022-12-15T12:02:53.955Z,41.03
2022-12-15T12:05:25.825Z,37.77
2022-12-15T12:08:05.686Z,47.20
2022-12-15T12:10:48.636Z,53.67
2022-12-15T12:13:34.730Z,47.03
2022-12-15T12:16:17.986Z,45.73
2022-12-15T12:19:14.798Z,40.07
2022-12-15T12:21:51.117Z,35.33
2022-12-15T12:24:54.664Z,39.00
2022-12-15T12:27:45.203Z,36.77
2022-12-15T12:30:30.955Z,36.47
2022-12-15T12:33:26.332Z,36.70
2022-12-15T12:36:17.535Z,36.10
2022-12-15T12:38:56.462Z,35.60
2022-12-15T12:41:39.600Z,36.60
2022-12-15T12:44:19.474Z,38.07
2022-12-15T12:47:03.638Z,36.97
2022-12-15T12:49:39.641Z,37.87
2022-12-15T12:52:23.646Z,41.57
2022-12-15T12:55:37.699Z,40.40
2022-12-15T12:58:31.588Z,38.73
2022-12-15T13:01:14.915Z,44.37
2022-12-15T13:03:50.134Z,41.67
2022-12-15T13:06:36.421Z,44.47
2022-12-15T13:09:32.046Z,47.03
2022-12-15T13:12:15.031Z,44.70
2022-12-15T13:14:57.129Z,53.93
2022-12-15T13:17:37.691Z,48.53
2022-12-15T13:20:29.114Z,48.90
2022-12-15T13:23:19.304Z,41.40
2022-12-15T13:25:57.076Z,41.67
2022-12-15T13:28:38.452Z,41.77
2022-12-15T13:31:26.133Z,43.10
2022-12-15T13:34:01.029Z,44.63
2022-12-15T13:36:46.140Z,63.20
2022-12-15T13:39:18.359Z,90.37
2022-12-15T13:44:54.747Z,137.40
2022-12-15T13:47:43.144Z,238.77
2022-12-15T13:50:34.821Z,56.50
2022-12-15T13:53:19.234Z,55.60
2022-12-15T13:56:30.347Z,71.70
2022-12-15T13:59:33.431Z,75.27
2022-12-15T14:02:01.600Z,100.20
2022-12-15T14:04:29.581Z,64.60
2022-12-15T14:07:07.470Z,46.63
2022-12-15T14:09:38.534Z,47.83
2022-12-15T14:12:18.458Z,53.63
2022-12-15T14:14:50.117Z,54.47
2022-12-15T14:17:26.448Z,86.17
2022-12-15T14:19:54.155Z,59.43
2022-12-15T14:22:33.491Z,83.67
2022-12-15T14:25:14.954Z,78.33
2022-12-15T14:27:55.521Z,77.07
2022-12-15T14:30:29.631Z,65.30
2022-12-15T14:33:13.472Z,134.97
2022-12-15T14:35:42.778Z,122.80
2022-12-15T14:38:26.425Z,78.47
2022-12-15T14:40:56.830Z,96.17
2022-12-15T14:43:38.439Z,83.20
2022-12-15T14:46:40.431Z,150.27
2022-12-15T14:49:24.523Z,100.67
2022-12-15T14:51:57.594Z,114.90
2022-12-15T14:54:44.421Z,209.40
2022-12-15T14:57:28.740Z,111.10
2022-12-15T15:00:03.520Z,118.03
2022-12-15T15:02:32.581Z,371.27
2022-12-15T15:05:14.511Z,261.90
2022-12-15T15:07:42.236Z,302.27
2022-12-15T15:10:32.528Z,894.63
2022-12-15T15:13:00.907Z,427.07
2022-12-15T15:15:28.716Z,386.30
2022-12-15T15:18:05.583Z,435.33
2022-12-15T15:20:36.192Z,205.80
2022-12-15T15:23:19.535Z,511.43
2022-12-15T15:26:15.410Z,387.93
2022-12-15T15:28:51.543Z,129.63
2022-12-15T15:31:41.434Z,145.83
2022-12-15T15:34:16.495Z,98.93
2022-12-15T15:36:44.163Z,109.87
2022-12-15T15:39:26.484Z,186.07
2022-12-15T15:41:54.026Z,113.63
2022-12-15T15:44:21.589Z,109.87
2022-12-15T15:46:57.445Z,174.60
2022-12-15T15:49:37.648Z,218.83
2022-12-15T15:52:13.430Z,97.03
2022-12-15T15:54:42.652Z,436.53
2022-12-15T15:57:21.370Z,150.87
2022-12-15T15:59:49.642Z,561.80
2022-12-15T16:02:17.193Z,684.80
2022-12-15T16:04:52.455Z,849.77
2022-12-15T16:07:30.626Z,430.80
2022-12-15T16:10:13.393Z,662.20
2022-12-15T16:12:53.119Z,493.50
2022-12-15T16:15:40.440Z,287.30
2022-12-15T16:18:07.970Z,340.67
2022-12-15T16:20:36.423Z,242.90
2022-12-15T16:23:21.368Z,125.70
2022-12-15T16:25:53.042Z,356.47
2022-12-15T16:28:32.615Z,335.13
2022-12-15T16:31:01.603Z,374.80
2022-12-15T16:33:29.181Z,584.10
2022-12-15T16:36:04.400Z,512.50
2022-12-15T16:38:32.996Z,132.30
2022-12-15T16:41:14.395Z,334.63
2022-12-15T16:43:47.758Z,443.63
2022-12-15T16:46:22.429Z,159.03
2022-12-15T16:48:49.798Z,134.10
2022-12-15T16:51:37.387Z,157.00
2022-12-15T16:54:05.224Z,171.77
2022-12-15T16:56:33.021Z,217.23
2022-12-15T16:59:32.011Z,294.27
2022-12-15T17:01:56.432Z,505.50
2022-12-15T17:04:32.395Z,175.90
2022-12-15T17:06:59.805Z,484.60
2022-12-15T17:09:43.415Z,391.83
2022-12-15T17:12:19.676Z,567.30
2022-12-15T17:14:53.608Z,303.17
2022-12-15T17:17:21.344Z,1042.87
2022-12-15T17:20:27.532Z,678.77
2022-12-15T17:22:44.689Z,544.30
2022-12-15T17:25:46.129Z,1009.63
2022-12-15T17:28:30.659Z,756.07
2022-12-15T17:30:58.723Z,931.47
2022-12-15T17:33:29.875Z,744.10
2022-12-15T17:36:10.647Z,379.67
2022-12-15T17:38:40.027Z,498.40
2022-12-15T17:41:42.388Z,634.53
2022-12-15T17:44:38.759Z,444.73
2022-12-15T17:47:14.630Z,311.73
2022-12-15T17:49:42.135Z,433.60
2022-12-15T17:52:32.638Z,311.10
2022-12-15T17:55:03.208Z,471.03
2022-12-15T17:57:39.701Z,295.33
2022-12-15T18:00:31.837Z,179.33
2022-12-15T18:03:06.845Z,149.70
2022-12-15T18:05:34.398Z,209.50
2022-12-15T18:08:20.669Z,129.67
2022-12-15T18:10:50.857Z,146.27
2022-12-15T18:13:37.276Z,133.70
2022-12-15T18:16:07.953Z,92.83
2022-12-15T18:18:35.459Z,65.50
2022-12-15T18:21:17.851Z,133.43
2022-12-15T18:23:47.549Z,191.93
2022-12-15T18:26:15.434Z,87.93
2022-12-15T18:28:55.911Z,133.23
2022-12-15T18:31:26.276Z,108.87
2022-12-15T18:34:04.984Z,370.47
2022-12-15T18:36:32.678Z,239.30
2022-12-15T18:39:01.697Z,82.43
2022-12-15T18:41:35.920Z,134.87
2022-12-15T18:44:03.390Z,306.43
2022-12-15T18:46:32.095Z,176.63
2022-12-15T18:49:06.873Z,110.43
2022-12-15T18:51:34.187Z,74.00
2022-12-15T18:54:01.482Z,79.27
2022-12-15T18:56:35.848Z,129.33
2022-12-15T18:59:03.215Z,95.47
2022-12-15T19:01:30.620Z,78.00
2022-12-15T19:04:04.832Z,83.30
2022-12-15T19:06:36.472Z,75.13
2022-12-15T19:09:27.835Z,104.33
2022-12-15T19:12:17.817Z,87.17
2022-12-15T19:14:54.989Z,67.43
2022-12-15T19:17:42.556Z,166.00
2022-12-15T19:20:42.850Z,135.20
2022-12-15T19:23:11.919Z,90.83
2022-12-15T19:25:40.538Z,110.17
2022-12-15T19:28:22.847Z,103.23
2022-12-15T19:33:31.726Z,68.23
2022-12-15T19:35:59.797Z,61.93
2022-12-15T19:38:30.152Z,61.63
2022-12-15T19:41:07.502Z,63.97
2022-12-15T19:43:35.691Z,68.73
2022-12-15T19:46:03.501Z,80.27
2022-12-15T19:48:37.515Z,89.67
2022-12-15T19:51:04.983Z,79.10
2022-12-15T19:53:36.240Z,79.87
2022-12-15T19:56:11.515Z,66.57
2022-12-15T19:58:38.815Z,67.73
2022-12-15T20:01:18.639Z,71.60
2022-12-15T20:03:48.796Z,67.37
2022-12-15T20:06:29.566Z,76.53
2022-12-15T20:08:57.752Z,70.23
2022-12-15T20:11:37.530Z,67.70
2022-12-15T20:14:15.351Z,61.00
2022-12-15T20:16:49.649Z,58.67
2022-12-15T20:19:17.055Z,64.43
2022-12-15T20:21:44.659Z,64.43
2022-12-15T20:24:25.749Z,64.30
2022-12-15T20:26:53.113Z,60.37
2022-12-15T20:29:38.748Z,58.53
2022-12-15T20:32:38.060Z,53.67
2022-12-15T20:35:12.728Z,65.23
2022-12-15T20:37:40.251Z,63.70
2022-12-15T20:40:29.723Z,57.53
2022-12-15T20:42:57.456Z,61.50
2022-12-15T20:45:27.162Z,57.70
2022-12-15T20:48:02.782Z,51.13
2022-12-15T20:50:41.164Z,60.63
2022-12-15T20:53:26.739Z,58.70
2022-12-15T20:55:55.977Z,54.77
2022-12-15T20:58:27.058Z,57.00
2022-12-15T21:01:03.827Z,58.10
2022-12-15T21:03:36.137Z,63.87
2022-12-15T21:06:10.767Z,55.13
2022-12-15T21:08:38.675Z,52.57
2022-12-15T21:11:26.782Z,55.37
2022-12-15T21:13:56.900Z,54.47
2022-12-15T21:16:33.953Z,54.63
2022-12-15T21:19:22.429Z,59.23
2022-12-15T21:21:59.804Z,54.93
2022-12-15T21:24:28.665Z,56.43
2022-12-15T21:26:56.607Z,55.40
2022-12-15T21:29:32.793Z,49.50
2022-12-15T21:32:20.764Z,53.50
2022-12-15T21:34:56.769Z,55.23
2022-12-15T21:37:31.221Z,50.43
2022-12-15T21:40:05.765Z,48.33
2022-12-15T21:42:36.147Z,52.10
2022-12-15T21:45:12.782Z,49.70
2022-12-15T21:47:59.801Z,48.67
2022-12-15T21:50:33.775Z,56.17
2022-12-15T21:53:02.617Z,50.83
2022-12-15T21:55:31.603Z,53.67
2022-12-15T21:58:05.738Z,49.70
2022-12-15T22:00:33.095Z,50.33
2022-12-15T22:03:01.602Z,51.23
2022-12-15T22:05:36.800Z,48.10
2022-12-15T22:08:22.068Z,48.10
2022-12-15T22:10:57.818Z,48.30
2022-12-15T22:13:25.178Z,47.13
2022-12-15T22:15:52.601Z,46.40
2022-12-15T22:18:30.348Z,42.20
2022-12-15T22:20:57.970Z,49.90
2022-12-15T22:23:25.405Z,47.53
2022-12-15T22:26:02.954Z,48.23
2022-12-15T22:28:30.710Z,45.23
2022-12-15T22:30:58.556Z,46.30
2022-12-15T22:33:38.971Z,46.03
2022-12-15T22:36:06.727Z,46.30
2022-12-15T22:38:34.689Z,49.60
2022-12-15T22:41:08.939Z,54.70
2022-12-15T22:43:42.712Z,52.97
2022-12-15T22:46:20.026Z,51.63
2022-12-15T22:48:48.284Z,47.67
2022-12-15T22:51:16.958Z,52.07
2022-12-15T22:53:52.954Z,46.37
2022-12-15T22:56:28.404Z,47.87
2022-12-15T22:59:10.963Z,47.80
2022-12-15T23:01:38.724Z,49.57
2022-12-15T23:04:06.677Z,49.17
2022-12-15T23:06:40.970Z,49.23
2022-12-15T23:09:09.539Z,47.77
2022-12-15T23:11:37.046Z,48.20
2022-12-15T23:14:48.996Z,49.30
2022-12-15T23:17:16.344Z,47.83
2022-12-15T23:19:47.465Z,52.43
2022-12-15T23:22:21.946Z,49.67
2022-12-15T23:24:49.288Z,56.20
2022-12-15T23:27:16.742Z,52.93
2022-12-15T23:29:51.023Z,52.57
2022-12-15T23:32:27.072Z,50.70
2022-12-15T23:35:07.980Z,52.63
2022-12-15T23:37:35.498Z,56.93
2022-12-15T23:40:03.090Z,54.77
2022-12-15T23:42:37.955Z,52.37
2022-12-15T23:45:05.708Z,46.00
2022-12-15T23:47:33.032Z,54.17
2022-12-15T23:50:07.986Z,48.70
2022-12-15T23:52:35.510Z,49.07
2022-12-15T23:55:02.954Z,45.33
2022-12-15T23:57:36.968Z,52.93
